Time;durP1;ratioP1;P1;durP2;ratioP2;P2;SDS_P1;SDS_P2;PMS_P1;PMS_P2;Temp;Humidity;BMP_temperature;BMP_pressure;BME280_temperature;BME280_humidity;BME280_pressure;Samples;Min_cycle;Max_cycle;Signal;HPM_P1;HPM_P2
2022/10/24 00:02:55;;;;;;;7.97;7.33;;;13.90;1.00;;;;;;6377338;27;20245;-53
2022/10/24 00:05:58;;;;;;;8.40;7.60;;;13.90;1.00;;;;;;6383099;27;20230;-52
2022/10/24 00:09:03;;;;;;;8.23;7.40;;;13.90;1.00;;;;;;6384779;27;20226;-53
2022/10/24 00:12:06;;;;;;;8.60;7.63;;;13.90;1.00;;;;;;6369900;27;20394;-54
2022/10/24 00:15:11;;;;;;;10.50;9.20;;;13.90;1.00;;;;;;6376532;27;20746;-55
2022/10/24 00:18:14;;;;;;;9.73;8.80;;;13.80;1.00;;;;;;6384555;27;20691;-55
2022/10/24 00:21:17;;;;;;;10.03;9.13;;;13.80;1.00;;;;;;6363952;27;20307;-54
2022/10/24 00:24:20;;;;;;;10.17;9.17;;;13.90;1.00;;;;;;6359814;28;20234;-55
2022/10/24 00:27:23;;;;;;;14.07;11.77;;;13.90;1.00;;;;;;6367379;27;20223;-55
2022/10/24 00:30:27;;;;;;;9.50;8.50;;;13.90;1.00;;;;;;6385473;27;20245;-54
2022/10/24 00:33:30;;;;;;;8.77;8.13;;;13.90;1.00;;;;;;6381041;27;20246;-53
2022/10/24 00:36:33;;;;;;;10.17;9.17;;;13.90;1.00;;;;;;6382832;27;20234;-54
2022/10/24 00:39:37;;;;;;;9.60;8.73;;;13.90;1.00;;;;;;6386190;27;20635;-54
2022/10/24 00:42:40;;;;;;;10.50;9.37;;;13.90;1.00;;;;;;6385830;27;20261;-54
2022/10/24 00:45:50;;;;;;;10.60;9.50;;;13.80;1.00;;;;;;6375942;27;20478;-54
2022/10/24 00:48:54;;;;;;;10.90;9.07;;;13.80;1.00;;;;;;6359979;27;20232;-54
2022/10/24 00:52:03;;;;;;;10.13;9.23;;;13.70;1.00;;;;;;6365535;27;20599;-57
2022/10/24 00:55:08;;;;;;;10.47;9.33;;;13.70;1.00;;;;;;6384591;27;20238;-54
2022/10/24 00:58:27;;;;;;;10.43;9.50;;;13.60;1.00;;;;;;6381748;27;20234;-54
2022/10/24 01:01:32;;;;;;;10.20;9.37;;;13.50;1.00;;;;;;6384367;27;20231;-54
2022/10/24 01:04:35;;;;;;;12.07;9.57;;;13.50;1.00;;;;;;6384716;27;20364;-54
2022/10/24 01:07:48;;;;;;;10.93;9.83;;;13.50;1.00;;;;;;6377586;27;20226;-54
2022/10/24 01:11:01;;;;;;;9.83;8.83;;;13.50;1.00;;;;;;6389615;27;20227;-55
2022/10/24 01:14:17;;;;;;;9.83;9.03;;;13.60;1.00;;;;;;6388884;27;20250;-54
2022/10/24 01:17:31;;;;;;;10.17;9.17;;;13.50;1.00;;;;;;6362620;27;20254;-54
2022/10/24 01:20:44;;;;;;;10.37;9.37;;;13.50;1.00;;;;;;6358909;27;20234;-54
2022/10/24 01:24:29;;;;;;;10.37;8.83;;;13.50;1.00;;;;;;6363425;27;20246;-54
2022/10/24 01:27:59;;;;;;;9.70;8.93;;;13.50;1.00;;;;;;6375476;27;20321;-54
2022/10/24 01:31:08;;;;;;;9.43;8.53;;;13.50;1.00;;;;;;6385208;27;20707;-55
2022/10/24 01:34:18;;;;;;;9.40;8.50;;;13.50;1.00;;;;;;6363268;27;20235;-54
2022/10/24 01:37:28;;;;;;;13.80;9.27;;;13.60;1.00;;;;;;6370626;27;20227;-53
2022/10/24 01:40:36;;;;;;;9.47;8.67;;;13.60;1.00;;;;;;6386279;27;20230;-53
2022/10/24 01:43:42;;;;;;;9.43;8.67;;;13.70;1.00;;;;;;6381796;27;20231;-54
2022/10/24 01:46:51;;;;;;;8.50;7.83;;;13.70;1.00;;;;;;6366272;27;20623;-54
2022/10/24 01:49:59;;;;;;;9.93;8.13;;;13.60;1.00;;;;;;6363995;27;20379;-54
2022/10/24 01:53:02;;;;;;;9.13;8.33;;;13.60;1.00;;;;;;6363625;27;20232;-60
2022/10/24 01:56:06;;;;;;;8.87;7.97;;;13.60;1.00;;;;;;6364055;27;20238;-53
2022/10/24 01:59:44;;;;;;;9.10;8.40;;;13.50;1.00;;;;;;6385754;27;20241;-57
2022/10/24 02:02:54;;;;;;;8.27;7.77;;;13.60;1.00;;;;;;6374719;27;20723;-53
2022/10/24 02:06:03;;;;;;;8.00;7.33;;;13.50;1.00;;;;;;6366414;27;20381;-54
2022/10/24 02:09:10;;;;;;;8.63;7.80;;;13.50;1.00;;;;;;6384816;27;20238;-54
2022/10/24 02:12:15;;;;;;;8.63;7.87;;;13.40;1.00;;;;;;6388631;27;20255;-54
2022/10/24 02:15:24;;;;;;;8.33;7.63;;;13.40;1.00;;;;;;6386909;27;20745;-53
2022/10/24 02:18:29;;;;;;;7.33;6.90;;;13.40;1.00;;;;;;6361346;27;20254;-54
2022/10/24 02:21:37;;;;;;;7.27;6.77;;;13.30;1.00;;;;;;6362352;27;20235;-54
2022/10/24 02:24:45;;;;;;;8.23;7.43;;;13.30;1.00;;;;;;6362959;27;20238;-54
2022/10/24 02:27:52;;;;;;;7.27;6.87;;;13.30;1.00;;;;;;6376703;27;20231;-53
2022/10/24 02:31:00;;;;;;;8.53;7.80;;;13.20;1.00;;;;;;6388442;27;20230;-54
2022/10/24 02:34:07;;;;;;;7.60;7.03;;;13.20;1.00;;;;;;6380429;27;20239;-53
2022/10/24 02:37:12;;;;;;;8.00;7.40;;;13.10;1.00;;;;;;6381054;27;20325;-54
2022/10/24 02:40:17;;;;;;;7.73;7.23;;;13.10;1.00;;;;;;6387253;27;20607;-59
2022/10/24 02:43:21;;;;;;;7.33;6.90;;;13.10;1.00;;;;;;6371616;27;20242;-55
2022/10/24 02:46:30;;;;;;;7.97;7.40;;;13.10;1.00;;;;;;6363071;27;20329;-54
2022/10/24 02:49:33;;;;;;;8.73;7.93;;;13.00;1.00;;;;;;6362471;27;20478;-54
2022/10/24 02:52:38;;;;;;;8.27;7.63;;;13.00;1.00;;;;;;6375003;27;20234;-54
2022/10/24 02:55:41;;;;;;;8.50;7.80;;;12.90;1.00;;;;;;6388360;27;20226;-54
2022/10/24 02:58:43;;;;;;;9.00;8.20;;;13.00;1.00;;;;;;6395634;27;20758;-53
2022/10/24 03:01:48;;;;;;;8.73;7.90;;;12.90;1.00;;;;;;6369249;27;20239;-53
2022/10/24 03:04:50;;;;;;;9.07;7.93;;;12.90;1.00;;;;;;6367639;27;20821;-54
2022/10/24 03:07:53;;;;;;;8.40;7.80;;;12.90;1.00;;;;;;6366193;27;20230;-54
2022/10/24 03:10:56;;;;;;;8.07;7.43;;;12.90;1.00;;;;;;6385843;27;20440;-54
2022/10/24 03:13:59;;;;;;;9.10;8.40;;;12.80;1.00;;;;;;6387804;27;20796;-53
2022/10/24 03:17:03;;;;;;;8.70;7.90;;;12.80;1.00;;;;;;6386973;27;20861;-54
2022/10/24 03:20:07;;;;;;;8.10;7.40;;;12.80;1.00;;;;;;6388062;27;20238;-54
2022/10/24 03:23:10;;;;;;;7.60;7.10;;;12.80;1.00;;;;;;6388261;27;20761;-53
2022/10/24 03:26:13;;;;;;;9.17;8.27;;;12.80;1.00;;;;;;6381553;27;20237;-54
2022/10/24 03:29:16;;;;;;;8.67;8.03;;;12.70;1.00;;;;;;6379363;27;20257;-53
2022/10/24 03:32:20;;;;;;;7.93;7.23;;;12.80;1.00;;;;;;6372046;27;20237;-53
2022/10/24 03:35:23;;;;;;;7.30;6.90;;;12.80;1.00;;;;;;6386114;27;20230;-53
2022/10/24 03:38:26;;;;;;;9.47;8.00;;;12.80;1.00;;;;;;6386450;27;20616;-58
2022/10/24 03:41:29;;;;;;;8.13;7.53;;;12.80;1.00;;;;;;6379436;27;20230;-53
2022/10/24 03:44:33;;;;;;;8.20;7.57;;;12.80;1.00;;;;;;6386105;27;20695;-53
2022/10/24 03:47:37;;;;;;;9.17;7.37;;;12.80;1.00;;;;;;6385903;27;20589;-56
2022/10/24 03:50:40;;;;;;;9.40;8.33;;;12.60;1.00;;;;;;6375407;27;20251;-53
2022/10/24 03:53:43;;;;;;;8.73;7.93;;;12.80;1.00;;;;;;6384939;27;20239;-55
2022/10/24 03:56:48;;;;;;;9.10;8.13;;;12.80;1.00;;;;;;6386809;27;20230;-54
2022/10/24 03:59:51;;;;;;;8.30;7.60;;;12.80;1.00;;;;;;6386059;27;20230;-54
2022/10/24 04:02:55;;;;;;;8.33;7.80;;;12.80;1.00;;;;;;6384443;27;20245;-54
2022/10/24 04:05:58;;;;;;;9.07;7.87;;;12.70;1.00;;;;;;6378735;27;20233;-55
2022/10/24 04:09:01;;;;;;;7.40;6.93;;;12.70;1.00;;;;;;6381760;27;20610;-54
2022/10/24 04:12:05;;;;;;;7.83;7.13;;;12.70;1.00;;;;;;6384827;27;20239;-55
2022/10/24 04:15:08;;;;;;;7.43;6.67;;;12.70;1.00;;;;;;6383165;27;20234;-54
2022/10/24 04:18:12;;;;;;;6.83;6.50;;;12.60;1.00;;;;;;6385640;27;20239;-54
2022/10/24 04:21:15;;;;;;;7.77;7.27;;;12.60;1.00;;;;;;6385116;27;20238;-53
2022/10/24 04:24:23;;;;;;;8.23;6.93;;;12.60;1.00;;;;;;6378218;27;20487;-54
2022/10/24 04:27:26;;;;;;;7.93;7.27;;;12.60;1.00;;;;;;6383505;27;20235;-54
2022/10/24 04:30:29;;;;;;;11.00;7.77;;;12.50;1.00;;;;;;6385329;27;20226;-53
2022/10/24 04:33:35;;;;;;;8.83;7.67;;;12.50;1.00;;;;;;6385158;27;20749;-53
2022/10/24 04:36:37;;;;;;;7.87;7.40;;;12.50;1.00;;;;;;6381387;27;20237;-54
2022/10/24 04:39:40;;;;;;;9.23;8.47;;;12.50;1.00;;;;;;6362012;27;20230;-53
2022/10/24 04:42:43;;;;;;;8.47;7.50;;;12.50;1.00;;;;;;6388107;27;20619;-53
2022/10/24 04:45:46;;;;;;;8.70;8.03;;;12.50;1.00;;;;;;6390938;27;20222;-54
2022/10/24 04:48:52;;;;;;;7.73;7.13;;;12.50;1.00;;;;;;6362263;27;20727;-51
2022/10/24 04:51:55;;;;;;;8.37;7.67;;;12.50;1.00;;;;;;6385644;27;20242;-54
2022/10/24 04:54:59;;;;;;;7.73;7.13;;;12.50;1.00;;;;;;6386257;27;20238;-54
2022/10/24 04:58:02;;;;;;;8.80;7.90;;;12.40;1.00;;;;;;6389733;27;20234;-54
2022/10/24 05:01:06;;;;;;;8.70;8.10;;;12.40;1.00;;;;;;6389743;27;20235;-53
2022/10/24 05:04:11;;;;;;;9.27;8.13;;;12.40;1.00;;;;;;6386510;27;20577;-53
2022/10/24 05:07:14;;;;;;;8.63;8.03;;;12.50;1.00;;;;;;6383552;27;20235;-54
2022/10/24 05:10:17;;;;;;;12.17;7.97;;;12.50;1.00;;;;;;6389668;27;20226;-54
2022/10/24 05:13:21;;;;;;;8.37;7.67;;;12.50;1.00;;;;;;6387098;27;20237;-53
2022/10/24 05:16:25;;;;;;;10.17;8.37;;;12.40;1.00;;;;;;6383390;27;20230;-60
2022/10/24 05:19:45;;;;;;;10.00;8.33;;;12.50;1.00;;;;;;6386845;27;20320;-54
2022/10/24 05:22:48;;;;;;;14.27;8.77;;;12.40;1.00;;;;;;6386250;27;20227;-54
2022/10/24 05:25:50;;;;;;;8.03;7.50;;;12.50;1.00;;;;;;6389689;27;20734;-54
2022/10/24 05:28:53;;;;;;;9.03;7.83;;;12.50;1.00;;;;;;6385238;27;20623;-54
2022/10/24 05:31:56;;;;;;;8.43;7.63;;;12.50;1.00;;;;;;6389144;27;20234;-53
2022/10/24 05:35:00;;;;;;;9.07;8.17;;;12.50;1.00;;;;;;6388311;27;20234;-53
2022/10/24 05:38:03;;;;;;;7.40;7.00;;;12.50;1.00;;;;;;6382409;27;20245;-54
2022/10/24 05:41:06;;;;;;;8.33;7.53;;;12.50;1.00;;;;;;6387341;27;20242;-54
2022/10/24 05:44:11;;;;;;;7.20;6.80;;;12.50;1.00;;;;;;6388739;27;20311;-57
2022/10/24 05:47:13;;;;;;;6.97;6.40;;;12.50;1.00;;;;;;6381903;27;20249;-53
2022/10/24 05:50:18;;;;;;;7.80;7.20;;;12.50;1.00;;;;;;6389658;27;20351;-53
2022/10/24 05:53:21;;;;;;;7.20;6.70;;;12.50;1.00;;;;;;6387993;27;20245;-54
2022/10/24 05:56:24;;;;;;;6.80;6.37;;;12.50;1.00;;;;;;6380081;27;20230;-54
2022/10/24 05:59:27;;;;;;;8.80;7.93;;;12.40;1.00;;;;;;6388634;27;20744;-57
2022/10/24 06:02:30;;;;;;;8.30;7.60;;;12.40;1.00;;;;;;6387956;27;20258;-53
2022/10/24 06:05:34;;;;;;;7.43;6.83;;;12.40;1.00;;;;;;6386571;27;20749;-56
2022/10/24 06:08:38;;;;;;;8.40;7.77;;;12.40;1.00;;;;;;6388402;27;20715;-54
2022/10/24 06:11:41;;;;;;;7.80;7.20;;;12.50;1.00;;;;;;6381099;27;20242;-56
2022/10/24 06:14:44;;;;;;;8.07;7.37;;;12.40;1.00;;;;;;6383276;27;20235;-53
2022/10/24 06:17:47;;;;;;;7.60;6.87;;;12.50;1.00;;;;;;6387882;27;20610;-53
2022/10/24 06:20:51;;;;;;;8.27;7.43;;;12.50;1.00;;;;;;6381860;27;20758;-54
2022/10/24 06:23:58;;;;;;;6.97;6.47;;;12.50;1.00;;;;;;6386888;27;20778;-54
2022/10/24 06:27:01;;;;;;;8.30;7.33;;;12.50;1.00;;;;;;6386366;27;20265;-53
2022/10/24 06:30:05;;;;;;;7.13;6.53;;;12.50;1.00;;;;;;6380101;27;20233;-58
2022/10/24 06:33:07;;;;;;;7.87;7.10;;;12.50;1.00;;;;;;6386853;27;20245;-54
2022/10/24 06:36:13;;;;;;;7.27;6.87;;;12.60;1.00;;;;;;6387061;27;20236;-53
2022/10/24 06:39:16;;;;;;;9.07;8.17;;;12.60;1.00;;;;;;6385445;27;20238;-53
2022/10/24 06:42:18;;;;;;;9.37;8.00;;;12.70;1.00;;;;;;6387125;27;20265;-56
2022/10/24 06:45:22;;;;;;;8.00;7.30;;;12.70;1.00;;;;;;6387801;27;20775;-54
2022/10/24 06:48:25;;;;;;;7.43;6.93;;;12.70;1.00;;;;;;6385835;27;20234;-54
2022/10/24 06:51:30;;;;;;;10.80;8.40;;;12.80;1.00;;;;;;6387174;27;20328;-54
2022/10/24 06:54:34;;;;;;;10.63;7.93;;;12.80;1.00;;;;;;6383645;27;20231;-53
2022/10/24 06:57:37;;;;;;;9.37;7.90;;;12.90;1.00;;;;;;6386967;27;20226;-54
2022/10/24 07:00:39;;;;;;;12.17;8.90;;;13.00;1.00;;;;;;6386891;27;20329;-54
2022/10/24 07:03:42;;;;;;;9.10;8.20;;;13.00;1.00;;;;;;6378526;27;20231;-54
2022/10/24 07:06:48;;;;;;;8.97;8.17;;;13.10;1.00;;;;;;6386913;27;20230;-53
2022/10/24 07:09:53;;;;;;;9.57;8.20;;;13.20;1.00;;;;;;6387842;27;20246;-54
2022/10/24 07:12:55;;;;;;;9.20;7.50;;;13.20;1.00;;;;;;6382795;27;20234;-54
2022/10/24 07:15:58;;;;;;;8.00;7.30;;;13.20;1.00;;;;;;6386999;27;20246;-54
2022/10/24 07:19:01;;;;;;;8.30;7.43;;;13.30;1.00;;;;;;6386743;27;20384;-54
2022/10/24 07:22:05;;;;;;;11.80;7.30;;;13.40;1.00;;;;;;6383468;27;20237;-54
2022/10/24 07:25:09;;;;;;;8.97;7.80;;;13.40;1.00;;;;;;6386706;27;20424;-54
2022/10/24 07:28:12;;;;;;;9.17;7.80;;;13.50;1.00;;;;;;6387755;27;20714;-54
2022/10/24 07:31:17;;;;;;;8.63;7.87;;;13.50;1.00;;;;;;6358942;27;20223;-53
2022/10/24 07:34:20;;;;;;;7.40;6.80;;;13.60;1.00;;;;;;6386186;27;20222;-57
2022/10/24 07:37:24;;;;;;;7.80;7.00;;;13.70;1.00;;;;;;6386955;27;20231;-54
2022/10/24 07:40:32;;;;;;;7.27;6.53;;;13.80;1.00;;;;;;6380331;27;21058;-54
2022/10/24 07:43:35;;;;;;;8.20;7.17;;;13.90;1.00;;;;;;6384326;27;20231;-54
2022/10/24 07:46:38;;;;;;;13.53;7.47;;;14.00;1.00;;;;;;6378402;27;20397;-53
2022/10/24 07:49:41;;;;;;;7.47;6.80;;;14.10;1.00;;;;;;6384299;27;20725;-54
2022/10/24 07:52:45;;;;;;;7.60;6.43;;;14.10;1.00;;;;;;6384273;27;20384;-54
2022/10/24 07:55:48;;;;;;;9.60;6.63;;;14.30;1.00;;;;;;6383054;27;20831;-54
2022/10/24 07:58:51;;;;;;;9.67;6.87;;;14.30;1.00;;;;;;6384207;27;20230;-54
2022/10/24 08:01:54;;;;;;;6.87;6.20;;;14.40;1.00;;;;;;6383229;27;20231;-54
2022/10/24 08:04:57;;;;;;;7.57;6.23;;;14.50;1.00;;;;;;6380871;27;20234;-55
2022/10/24 08:08:01;;;;;;;7.47;6.57;;;14.60;1.00;;;;;;6383402;27;20226;-54
2022/10/24 08:11:26;;;;;;;6.33;5.73;;;14.70;1.00;;;;;;6383000;27;20684;-54
2022/10/24 08:14:28;;;;;;;6.70;6.03;;;14.80;1.00;;;;;;6380283;27;20794;-54
2022/10/24 08:17:31;;;;;;;12.70;8.23;;;14.90;1.00;;;;;;6381743;27;20241;-54
2022/10/24 08:20:35;;;;;;;11.37;8.53;;;15.00;1.00;;;;;;6380881;27;20235;-56
2022/10/24 08:23:42;;;;;;;12.70;7.37;;;15.10;1.00;;;;;;6383218;27;20645;-54
2022/10/24 08:26:45;;;;;;;10.50;6.67;;;15.10;1.00;;;;;;6383245;27;20699;-55
2022/10/24 08:29:48;;;;;;;8.67;6.33;;;15.20;1.00;;;;;;6334034;27;1158074;-55
2022/10/24 08:32:51;;;;;;;12.57;6.20;;;15.40;1.00;;;;;;6384479;27;20265;-55
2022/10/24 08:35:56;;;;;;;7.67;5.60;;;15.50;1.00;;;;;;6382449;27;20576;-55
2022/10/24 08:39:01;;;;;;;6.73;5.63;;;15.70;1.00;;;;;;6379168;27;20226;-55
2022/10/24 08:42:06;;;;;;;8.33;5.70;;;15.80;1.00;;;;;;6382258;27;20853;-54
2022/10/24 08:45:15;;;;;;;11.10;5.43;;;15.90;1.00;;;;;;6383901;27;20230;-53
2022/10/24 08:48:26;;;;;;;10.20;5.17;;;16.10;1.00;;;;;;6383787;27;20230;-55
2022/10/24 08:51:39;;;;;;;10.93;5.50;;;16.10;1.00;;;;;;6378316;27;20229;-54
2022/10/24 08:54:45;;;;;;;5.80;4.93;;;16.30;1.00;;;;;;6380954;27;20242;-55
2022/10/24 08:57:54;;;;;;;13.23;5.63;;;16.40;1.00;;;;;;6350602;27;20223;-54
2022/10/24 09:01:02;;;;;;;10.23;4.87;;;16.40;1.00;;;;;;6385053;27;20231;-56
2022/10/24 09:04:09;;;;;;;5.37;4.73;;;16.50;1.00;;;;;;6382320;27;20728;-55
2022/10/24 09:07:18;;;;;;;5.53;4.90;;;16.50;1.00;;;;;;6382970;27;20388;-54
2022/10/24 09:10:30;;;;;;;9.33;5.07;;;16.60;1.00;;;;;;6385168;27;20303;-55
2022/10/24 09:13:35;;;;;;;7.63;4.60;;;16.60;1.00;;;;;;6378194;27;20269;-54
2022/10/24 09:16:42;;;;;;;14.03;5.00;;;16.70;1.00;;;;;;6384613;27;20392;-55
2022/10/24 09:19:51;;;;;;;10.30;4.63;;;16.80;1.00;;;;;;6383583;27;20231;-57
2022/10/24 09:22:57;;;;;;;9.37;4.60;;;16.80;1.00;;;;;;6381005;27;20343;-55
2022/10/24 09:26:04;;;;;;;7.97;4.83;;;16.90;1.00;;;;;;6384433;27;20343;-56
2022/10/24 09:29:07;;;;;;;9.83;5.13;;;16.90;1.00;;;;;;6383783;27;20238;-56
2022/10/24 09:32:16;;;;;;;6.97;4.23;;;17.00;1.00;;;;;;6384236;27;20375;-55
2022/10/24 09:35:27;;;;;;;12.87;4.57;;;17.00;1.00;;;;;;6388999;27;20687;-54
2022/10/24 09:38:33;;;;;;;8.00;4.67;;;17.10;1.00;;;;;;6380140;27;20241;-55
2022/10/24 09:41:38;;;;;;;7.53;4.13;;;17.20;1.00;;;;;;6383651;27;20235;-54
2022/10/24 09:44:42;;;;;;;7.70;4.53;;;17.20;1.00;;;;;;6389597;27;20258;-55
2022/10/24 09:47:45;;;;;;;9.40;4.37;;;17.40;1.00;;;;;;6386551;27;20269;-55
2022/10/24 09:50:50;;;;;;;12.33;4.80;;;17.50;1.00;;;;;;6385760;27;20317;-57
2022/10/24 09:54:07;;;;;;;10.90;4.53;;;17.50;1.00;;;;;;6388963;27;20238;-57
2022/10/24 09:57:16;;;;;;;7.53;4.73;;;17.50;1.00;;;;;;6384811;27;20279;-55
2022/10/24 10:00:23;;;;;;;7.97;4.37;;;17.50;1.00;;;;;;6388650;27;20259;-55
2022/10/24 10:03:26;;;;;;;9.27;5.70;;;17.50;1.00;;;;;;6387046;27;20607;-55
2022/10/24 10:06:32;;;;;;;11.20;4.33;;;17.60;1.00;;;;;;6379450;27;20230;-55
2022/10/24 10:09:40;;;;;;;5.40;4.30;;;17.70;1.00;;;;;;6387728;27;20223;-56
2022/10/24 10:12:48;;;;;;;12.23;4.70;;;17.70;1.00;;;;;;6373492;27;20239;-56
2022/10/24 10:15:53;;;;;;;7.83;4.40;;;17.90;1.00;;;;;;6386609;27;20231;-55
2022/10/24 10:19:03;;;;;;;8.27;4.50;;;17.90;1.00;;;;;;6387296;27;20247;-56
2022/10/24 10:22:23;;;;;;;10.20;4.37;;;17.90;1.00;;;;;;6383984;27;20245;-55
2022/10/24 10:25:32;;;;;;;9.20;4.77;;;18.00;1.00;;;;;;6387525;27;20234;-54
2022/10/24 10:28:43;;;;;;;7.63;4.40;;;18.00;1.00;;;;;;6386569;27;20491;-56
2022/10/24 10:31:48;;;;;;;7.93;5.10;;;18.10;1.00;;;;;;6382065;27;20247;-57
2022/10/24 10:34:59;;;;;;;8.80;5.07;;;18.10;1.00;;;;;;6384299;27;20246;-56
2022/10/24 10:38:13;;;;;;;8.80;4.80;;;18.10;1.00;;;;;;6381335;27;20234;-57
2022/10/24 10:41:28;;;;;;;10.43;5.97;;;18.20;1.00;;;;;;6386061;27;20810;-56
2022/10/24 10:44:55;;;;;;;10.00;4.90;;;18.20;1.00;;;;;;6386532;27;20250;-60
2022/10/24 10:48:08;;;;;;;8.80;4.40;;;18.20;1.00;;;;;;6384409;27;20234;-56
2022/10/24 10:51:20;;;;;;;7.13;4.00;;;18.10;1.00;;;;;;6385219;27;20238;-55
2022/10/24 10:54:44;;;;;;;8.43;4.30;;;18.20;1.00;;;;;;6386947;27;20265;-56
2022/10/24 10:57:52;;;;;;;5.53;3.90;;;18.20;1.00;;;;;;6382172;27;20310;-57
2022/10/24 11:01:09;;;;;;;11.87;4.70;;;18.10;1.00;;;;;;6382909;27;20241;-56
2022/10/24 11:04:22;;;;;;;6.43;4.10;;;18.20;1.00;;;;;;6386877;27;20747;-56
2022/10/24 11:07:34;;;;;;;5.40;3.90;;;18.30;1.00;;;;;;6384001;27;20410;-56
2022/10/24 11:10:42;;;;;;;4.80;3.67;;;18.30;1.00;;;;;;6379655;27;20223;-56
2022/10/24 11:13:49;;;;;;;10.10;4.47;;;18.30;1.00;;;;;;6385392;27;20264;-56
2022/10/24 11:16:55;;;;;;;8.50;3.87;;;18.30;1.00;;;;;;6378454;27;20245;-55
2022/10/24 11:20:07;;;;;;;7.80;4.10;;;18.30;1.00;;;;;;6385551;27;20369;-55
2022/10/24 11:23:19;;;;;;;10.57;5.40;;;18.40;1.00;;;;;;6382882;27;20230;-56
2022/10/24 11:26:27;;;;;;;7.40;4.20;;;18.40;1.00;;;;;;6386457;27;20234;-55
2022/10/24 11:29:36;;;;;;;9.63;4.57;;;18.30;1.00;;;;;;6383332;27;20226;-62
2022/10/24 11:32:49;;;;;;;8.23;4.40;;;18.30;1.00;;;;;;6357229;27;20231;-55
2022/10/24 11:36:06;;;;;;;9.00;4.60;;;18.30;1.00;;;;;;6380296;27;20253;-56
2022/10/24 11:39:14;;;;;;;13.30;5.53;;;18.40;1.00;;;;;;6385051;27;20231;-56
2022/10/24 11:42:23;;;;;;;6.60;4.63;;;18.30;1.00;;;;;;6378668;27;20408;-55
2022/10/24 11:45:32;;;;;;;6.23;4.47;;;18.40;1.00;;;;;;6386775;27;20235;-56
2022/10/24 11:48:40;;;;;;;5.77;3.60;;;18.40;1.00;;;;;;6378565;27;20230;-59
2022/10/24 11:51:47;;;;;;;12.27;3.87;;;18.30;1.00;;;;;;6382604;27;20690;-57
2022/10/24 11:54:54;;;;;;;4.97;3.93;;;18.40;1.00;;;;;;6386058;27;20257;-59
2022/10/24 11:57:59;;;;;;;10.43;4.07;;;18.40;1.00;;;;;;6384741;27;20227;-54
2022/10/24 12:01:18;;;;;;;6.50;4.03;;;18.40;1.00;;;;;;6381951;27;20245;-56
2022/10/24 12:04:53;;;;;;;8.97;4.07;;;18.50;1.00;;;;;;6385753;27;20280;-55
2022/10/24 12:08:27;;;;;;;5.93;3.60;;;18.50;1.00;;;;;;6385146;27;20608;-56
2022/10/24 12:11:58;;;;;;;9.10;3.97;;;18.60;1.00;;;;;;6384950;27;20583;-55
2022/10/24 12:15:10;;;;;;;9.97;4.30;;;18.50;1.00;;;;;;6375215;27;20692;-56
2022/10/24 12:18:28;;;;;;;6.60;3.87;;;18.60;1.00;;;;;;6392554;27;20233;-60
2022/10/24 12:21:38;;;;;;;9.07;3.53;;;18.70;1.00;;;;;;6384239;27;20259;-55
2022/10/24 12:24:41;;;;;;;7.77;3.87;;;18.80;1.00;;;;;;6387461;27;20428;-55
2022/10/24 12:27:44;;;;;;;7.97;4.40;;;18.70;1.00;;;;;;6386156;27;20230;-61
2022/10/24 12:31:09;;;;;;;5.47;4.13;;;18.80;1.00;;;;;;6384687;27;20226;-55
2022/10/24 12:34:42;;;;;;;6.93;3.57;;;18.80;1.00;;;;;;6385320;27;20253;-55
2022/10/24 12:37:56;;;;;;;10.47;7.13;;;18.80;1.00;;;;;;6377588;27;20227;-56
2022/10/24 12:41:05;;;;;;;10.27;4.37;;;18.70;1.00;;;;;;6381083;27;20710;-56
2022/10/24 12:44:57;;;;;;;23.17;8.23;;;18.70;1.00;;;;;;6385133;27;20322;-55
2022/10/24 12:48:25;;;;;;;5.13;3.53;;;18.80;1.00;;;;;;6377705;27;20226;-56
2022/10/24 12:51:31;;;;;;;5.77;3.83;;;18.80;1.00;;;;;;6385086;27;20230;-56
2022/10/24 12:54:45;;;;;;;5.13;3.77;;;18.80;1.00;;;;;;6377452;27;20477;-56
2022/10/24 12:57:48;;;;;;;10.00;3.23;;;18.90;1.00;;;;;;6383408;27;20227;-55
2022/10/24 13:00:55;;;;;;;12.03;4.17;;;18.90;1.00;;;;;;6385255;27;20231;-55
2022/10/24 13:04:28;;;;;;;5.13;3.30;;;18.90;1.00;;;;;;6386695;27;20258;-56
2022/10/24 13:07:59;;;;;;;8.40;4.33;;;19.00;1.00;;;;;;6385770;27;20302;-55
2022/10/24 13:11:14;;;;;;;11.13;4.13;;;19.10;1.00;;;;;;6389702;27;20226;-55
2022/10/24 13:14:35;;;;;;;12.03;5.47;;;19.10;1.00;;;;;;6389402;27;20396;-56
2022/10/24 13:17:46;;;;;;;11.77;4.30;;;19.20;1.00;;;;;;6374613;27;20232;-60
2022/10/24 13:21:06;;;;;;;5.20;3.60;;;19.20;1.00;;;;;;6385023;27;20669;-55
2022/10/24 13:24:32;;;;;;;7.77;3.60;;;19.20;1.00;;;;;;6387403;27;20753;-56
2022/10/24 13:27:37;;;;;;;5.07;3.60;;;19.20;1.00;;;;;;6380357;27;20219;-55
2022/10/24 13:30:40;;;;;;;9.13;3.30;;;19.20;1.00;;;;;;6387742;27;20231;-54
2022/10/24 13:33:48;;;;;;;5.00;3.40;;;19.10;1.00;;;;;;6388733;27;20883;-56
2022/10/24 13:36:59;;;;;;;8.30;3.20;;;19.10;1.00;;;;;;6388342;27;20230;-55
2022/10/24 13:40:08;;;;;;;7.17;3.73;;;19.10;1.00;;;;;;6380566;27;20231;-55
2022/10/24 13:43:18;;;;;;;8.77;4.60;;;19.10;1.00;;;;;;6385171;27;20284;-55
2022/10/24 13:46:27;;;;;;;3.40;3.10;;;19.10;1.00;;;;;;6387543;27;20233;-56
2022/10/24 13:49:34;;;;;;;6.87;3.63;;;19.10;1.00;;;;;;6380879;27;20234;-56
2022/10/24 13:52:43;;;;;;;6.13;3.50;;;19.00;1.00;;;;;;6380950;27;20234;-55
2022/10/24 13:55:51;;;;;;;5.97;2.90;;;19.00;1.00;;;;;;6383253;27;20230;-52
2022/10/24 13:58:55;;;;;;;9.17;6.20;;;19.00;1.00;;;;;;6389466;27;20633;-55
2022/10/24 14:02:02;;;;;;;5.30;3.47;;;19.00;1.00;;;;;;6389322;27;20231;-55
2022/10/24 14:05:05;;;;;;;6.83;3.03;;;19.00;1.00;;;;;;6385018;27;20219;-55
2022/10/24 14:08:08;;;;;;;8.10;4.80;;;19.00;1.00;;;;;;6388232;27;20618;-55
2022/10/24 14:11:18;;;;;;;7.90;4.00;;;19.00;1.00;;;;;;6384850;27;20630;-56
2022/10/24 14:14:31;;;;;;;7.30;3.50;;;18.90;1.00;;;;;;6388343;27;20255;-56
2022/10/24 14:17:35;;;;;;;7.20;5.63;;;18.80;1.00;;;;;;6380920;27;20238;-57
2022/10/24 14:20:38;;;;;;;8.03;3.57;;;18.80;1.00;;;;;;6387718;27;20222;-55
2022/10/24 14:23:41;;;;;;;6.83;3.33;;;18.70;1.00;;;;;;6387511;27;20227;-54
2022/10/24 14:26:45;;;;;;;10.13;3.67;;;18.70;1.00;;;;;;6388230;27;20245;-57
2022/10/24 14:29:59;;;;;;;4.37;3.37;;;18.70;1.00;;;;;;6386908;27;20802;-55
2022/10/24 14:33:17;;;;;;;7.50;3.77;;;18.70;1.00;;;;;;6384029;27;20707;-57
2022/10/24 14:36:22;;;;;;;11.47;4.17;;;18.70;1.00;;;;;;6358753;27;20234;-55
2022/10/24 14:39:25;;;;;;;7.00;3.87;;;18.70;1.00;;;;;;6386676;27;20245;-56
2022/10/24 14:42:30;;;;;;;7.03;4.07;;;18.80;1.00;;;;;;6388109;27;20613;-56
2022/10/24 14:46:28;;;;;;;9.27;3.50;;;18.70;1.00;;;;;;6376012;27;20238;-56
2022/10/24 14:49:36;;;;;;;7.37;3.50;;;18.70;1.00;;;;;;6337681;27;20227;-57
2022/10/24 14:52:45;;;;;;;3.87;3.43;;;18.60;1.00;;;;;;6386064;27;20231;-56
2022/10/24 14:55:51;;;;;;;3.87;3.23;;;18.60;1.00;;;;;;6381842;27;20499;-56
2022/10/24 14:58:57;;;;;;;5.90;3.73;;;18.50;1.00;;;;;;6387121;27;20227;-56
2022/10/24 15:02:05;;;;;;;6.40;3.50;;;18.50;1.00;;;;;;6387176;27;20611;-58
2022/10/24 15:05:32;;;;;;;8.83;3.90;;;18.50;1.00;;;;;;6382407;27;20317;-55
2022/10/24 15:08:36;;;;;;;8.50;3.73;;;18.50;1.00;;;;;;6375741;27;20262;-56
2022/10/24 15:11:41;;;;;;;7.20;4.00;;;18.40;1.00;;;;;;6386752;27;20231;-55
2022/10/24 15:14:47;;;;;;;5.27;3.73;;;18.30;1.00;;;;;;6386412;27;20226;-55
2022/10/24 15:17:51;;;;;;;5.43;3.93;;;18.20;1.00;;;;;;6384074;27;20230;-55
2022/10/24 15:21:03;;;;;;;7.13;3.63;;;18.20;1.00;;;;;;6386326;27;20603;-54
2022/10/24 15:24:17;;;;;;;9.57;4.10;;;18.10;1.00;;;;;;6386591;27;20241;-55
2022/10/24 15:27:26;;;;;;;4.97;3.70;;;18.10;1.00;;;;;;6382852;27;20617;-55
2022/10/24 15:30:31;;;;;;;12.87;4.40;;;18.00;1.00;;;;;;6387220;27;20227;-55
2022/10/24 15:33:36;;;;;;;4.40;4.00;;;18.00;1.00;;;;;;6386029;27;20457;-55
2022/10/24 15:36:42;;;;;;;7.87;4.83;;;17.90;1.00;;;;;;6382161;27;20239;-56
2022/10/24 15:39:45;;;;;;;9.23;4.87;;;17.90;1.00;;;;;;6379679;27;20230;-55
2022/10/24 15:42:48;;;;;;;9.93;4.70;;;17.90;1.00;;;;;;6384869;27;20435;-56
2022/10/24 15:45:51;;;;;;;10.13;4.60;;;17.70;1.00;;;;;;6384842;27;20230;-55
2022/10/24 15:48:57;;;;;;;4.47;4.00;;;17.60;1.00;;;;;;6385767;27;20229;-56
2022/10/24 15:52:06;;;;;;;5.07;4.27;;;17.60;1.00;;;;;;6385545;27;20249;-56
2022/10/24 15:55:16;;;;;;;8.67;4.13;;;17.50;1.00;;;;;;6385473;27;20257;-56
2022/10/24 15:58:19;;;;;;;5.90;4.20;;;17.60;1.00;;;;;;6383467;27;20313;-56
2022/10/24 16:01:26;;;;;;;9.53;4.10;;;17.50;1.00;;;;;;6380070;27;20708;-56
2022/10/24 16:04:31;;;;;;;6.93;4.43;;;17.50;1.00;;;;;;6384828;27;20286;-54
2022/10/24 16:07:35;;;;;;;6.73;3.93;;;17.50;1.00;;;;;;6383883;27;20226;-54
2022/10/24 16:10:38;;;;;;;8.23;4.03;;;17.40;1.00;;;;;;6376078;27;20238;-55
2022/10/24 16:13:41;;;;;;;4.53;3.70;;;17.30;1.00;;;;;;6381749;27;20242;-55
2022/10/24 16:16:44;;;;;;;7.03;4.30;;;17.30;1.00;;;;;;6384406;27;20238;-56
2022/10/24 16:19:47;;;;;;;7.50;4.10;;;17.30;1.00;;;;;;6385468;27;20246;-56
2022/10/24 16:22:52;;;;;;;8.77;4.50;;;17.30;1.00;;;;;;6379255;27;20284;-55
2022/10/24 16:25:55;;;;;;;9.10;4.37;;;17.30;1.00;;;;;;6385742;27;20230;-55
2022/10/24 16:28:57;;;;;;;4.83;4.33;;;17.20;1.00;;;;;;6385127;27;20226;-55